createdAt,value
2019-03-24T00:01:00.689Z,4.83
2019-03-24T00:03:28.330Z,4.83
2019-03-24T00:05:55.939Z,4.81
2019-03-24T00:08:23.548Z,4.80
2019-03-24T00:10:51.168Z,4.78
2019-03-24T00:13:18.794Z,4.79
2019-03-24T00:15:46.443Z,4.78
2019-03-24T00:18:14.084Z,4.78
2019-03-24T00:20:41.704Z,4.78
2019-03-24T00:23:09.377Z,4.78
2019-03-24T00:25:37.059Z,4.77
2019-03-24T00:28:04.648Z,4.75
2019-03-24T00:30:32.274Z,4.73
2019-03-24T00:32:59.875Z,4.73
2019-03-24T00:35:27.479Z,4.74
2019-03-24T00:37:55.079Z,4.75
2019-03-24T00:40:22.673Z,4.78
2019-03-24T00:42:50.267Z,4.70
2019-03-24T00:45:17.863Z,4.68
2019-03-24T00:47:45.460Z,4.67
2019-03-24T00:50:13.158Z,4.70
2019-03-24T00:52:40.739Z,4.66
2019-03-24T00:55:08.464Z,4.66
2019-03-24T00:57:37.588Z,4.59
2019-03-24T01:00:06.297Z,4.57
2019-03-24T01:02:33.914Z,4.55
2019-03-24T01:05:01.519Z,4.55
2019-03-24T01:07:31.158Z,4.53
2019-03-24T01:09:58.760Z,4.51
2019-03-24T01:12:26.355Z,4.50
2019-03-24T01:14:53.960Z,4.48
2019-03-24T01:17:21.551Z,4.48
2019-03-24T01:19:49.158Z,4.46
2019-03-24T01:22:16.774Z,4.41
2019-03-24T01:24:44.372Z,4.38
2019-03-24T01:27:11.959Z,4.36
2019-03-24T01:29:39.551Z,4.33
2019-03-24T01:32:07.146Z,4.34
2019-03-24T01:34:34.781Z,4.30
2019-03-24T01:37:02.402Z,4.26
2019-03-24T01:39:30.025Z,4.22
2019-03-24T01:41:57.604Z,4.21
2019-03-24T01:44:25.231Z,4.24
2019-03-24T01:46:52.829Z,4.20
2019-03-24T01:49:20.421Z,4.17
2019-03-24T01:51:48.027Z,4.14
2019-03-24T01:54:15.662Z,4.12
2019-03-24T01:56:43.261Z,4.10
2019-03-24T01:59:10.852Z,4.08
2019-03-24T02:01:38.448Z,4.06
2019-03-24T02:04:06.052Z,4.02
2019-03-24T02:06:33.669Z,3.99
2019-03-24T02:09:01.270Z,3.99
2019-03-24T02:11:28.860Z,3.95
2019-03-24T02:13:56.459Z,3.96
2019-03-24T02:16:24.062Z,3.91
2019-03-24T02:18:51.648Z,3.93
2019-03-24T02:21:19.253Z,3.87
2019-03-24T02:23:46.864Z,3.84
2019-03-24T02:26:14.451Z,3.87
2019-03-24T02:28:42.074Z,3.79
2019-03-24T02:31:09.702Z,3.82
2019-03-24T02:33:37.296Z,3.77
2019-03-24T02:36:04.939Z,3.76
2019-03-24T02:38:32.630Z,3.70
2019-03-24T02:41:00.238Z,3.67
2019-03-24T02:43:27.835Z,3.65
2019-03-24T02:45:55.460Z,3.65
2019-03-24T02:48:23.058Z,3.61
2019-03-24T02:50:50.702Z,3.57
2019-03-24T02:53:18.304Z,3.56
2019-03-24T02:55:45.898Z,3.54
2019-03-24T02:58:13.505Z,3.53
2019-03-24T03:00:41.098Z,3.52
2019-03-24T03:03:08.698Z,3.48
2019-03-24T03:05:36.314Z,3.49
2019-03-24T03:08:03.928Z,3.46
2019-03-24T03:10:31.520Z,3.40
2019-03-24T03:12:59.138Z,3.39
2019-03-24T03:15:26.755Z,3.37
2019-03-24T03:17:54.343Z,3.37
2019-03-24T03:20:21.949Z,3.32
2019-03-24T03:22:49.579Z,3.30
2019-03-24T03:25:17.252Z,3.26
2019-03-24T03:27:44.923Z,3.25
2019-03-24T03:30:12.656Z,3.25
2019-03-24T03:32:40.283Z,3.24
2019-03-24T03:35:09.449Z,3.29
2019-03-24T03:37:37.094Z,3.26
2019-03-24T03:40:05.922Z,3.21
2019-03-24T03:42:33.511Z,3.20
2019-03-24T03:45:01.128Z,3.15
2019-03-24T03:47:28.722Z,3.16
2019-03-24T03:49:56.350Z,3.13
2019-03-24T03:52:23.957Z,3.09
2019-03-24T03:54:51.586Z,3.11
2019-03-24T03:57:19.180Z,3.10
2019-03-24T03:59:46.785Z,3.09
2019-03-24T04:02:14.389Z,3.09
2019-03-24T04:04:41.980Z,3.07
2019-03-24T04:07:09.581Z,3.05
2019-03-24T04:09:37.209Z,3.05
2019-03-24T04:12:04.911Z,3.03
2019-03-24T04:14:32.509Z,3.04
2019-03-24T04:17:07.152Z,3.01
2019-03-24T04:19:29.608Z,3.02
2019-03-24T04:21:57.211Z,3.02
2019-03-24T04:24:24.822Z,2.98
2019-03-24T04:26:52.433Z,2.97
2019-03-24T04:29:20.024Z,2.95
2019-03-24T04:31:47.627Z,2.95
2019-03-24T04:34:15.243Z,2.92
2019-03-24T04:36:42.842Z,2.94
2019-03-24T04:39:10.449Z,2.92
2019-03-24T04:41:38.052Z,2.89
2019-03-24T04:44:05.682Z,2.87
2019-03-24T04:46:33.284Z,2.83
2019-03-24T04:49:00.921Z,2.80
2019-03-24T04:51:28.495Z,2.80
2019-03-24T04:53:56.112Z,2.77
2019-03-24T04:56:23.739Z,2.75
2019-03-24T04:58:51.331Z,2.76
2019-03-24T05:01:18.932Z,2.73
2019-03-24T05:03:47.751Z,2.74
2019-03-24T05:06:15.416Z,2.73
2019-03-24T05:08:43.419Z,2.72
2019-03-24T05:11:11.010Z,2.73
2019-03-24T05:13:38.635Z,2.77
2019-03-24T05:16:06.219Z,2.77
2019-03-24T05:18:33.815Z,2.78
2019-03-24T05:21:01.472Z,2.78
2019-03-24T05:23:29.064Z,2.80
2019-03-24T05:25:56.671Z,2.81
2019-03-24T05:28:24.266Z,2.83
2019-03-24T05:30:51.859Z,2.85
2019-03-24T05:33:19.462Z,2.87
2019-03-24T05:35:47.051Z,2.87
2019-03-24T05:38:14.647Z,2.93
2019-03-24T05:40:42.251Z,2.95
2019-03-24T05:43:09.838Z,2.96
2019-03-24T05:45:37.445Z,2.97
2019-03-24T05:48:05.047Z,3.00
2019-03-24T05:50:32.649Z,3.00
2019-03-24T05:53:00.254Z,3.01
2019-03-24T05:55:27.850Z,3.02
2019-03-24T05:57:55.442Z,3.03
2019-03-24T06:00:23.058Z,3.05
2019-03-24T06:02:50.702Z,3.07
2019-03-24T06:05:18.295Z,3.12
2019-03-24T06:07:45.896Z,3.14
2019-03-24T06:10:13.508Z,3.16
2019-03-24T06:12:41.104Z,3.17
2019-03-24T06:15:09.098Z,3.21
2019-03-24T06:17:47.120Z,3.25
2019-03-24T06:20:06.701Z,3.29
2019-03-24T06:22:34.298Z,3.31
2019-03-24T06:25:01.910Z,3.37
2019-03-24T06:27:29.507Z,3.42
2019-03-24T06:29:57.201Z,3.48
2019-03-24T06:32:24.814Z,3.53
2019-03-24T06:34:52.547Z,3.60
2019-03-24T06:37:20.149Z,3.64
2019-03-24T06:39:47.762Z,3.69
2019-03-24T06:42:15.504Z,3.73
2019-03-24T06:44:43.167Z,3.82
2019-03-24T06:47:10.760Z,3.86
2019-03-24T06:49:38.358Z,3.89
2019-03-24T06:52:05.955Z,3.94
2019-03-24T06:54:33.553Z,4.00
2019-03-24T06:57:01.194Z,4.07
2019-03-24T06:59:28.791Z,4.13
2019-03-24T07:01:56.394Z,4.15
2019-03-24T07:04:23.990Z,4.25
2019-03-24T07:06:51.595Z,4.26
2019-03-24T07:09:19.211Z,4.28
2019-03-24T07:11:46.819Z,4.34
2019-03-24T07:14:14.441Z,4.42
2019-03-24T07:16:42.028Z,4.46
2019-03-24T07:19:09.631Z,4.50
2019-03-24T07:21:37.227Z,4.51
2019-03-24T07:24:15.392Z,4.54
2019-03-24T07:26:42.994Z,4.59
2019-03-24T07:29:10.614Z,4.64
2019-03-24T07:31:38.202Z,4.72
2019-03-24T07:34:05.805Z,4.80
2019-03-24T07:36:33.412Z,4.84
2019-03-24T07:39:01.013Z,4.94
2019-03-24T07:41:28.622Z,4.98
2019-03-24T07:43:57.294Z,5.06
2019-03-24T07:46:24.974Z,5.07
2019-03-24T07:48:52.628Z,5.07
2019-03-24T07:51:20.242Z,5.11
2019-03-24T07:53:47.836Z,5.18
2019-03-24T07:56:15.586Z,5.20
2019-03-24T07:58:52.835Z,5.26
2019-03-24T08:01:20.449Z,5.37
2019-03-24T08:03:48.266Z,5.52
2019-03-24T08:06:15.928Z,5.89
2019-03-24T08:08:44.363Z,6.73
2019-03-24T08:11:12.280Z,7.54
2019-03-24T08:13:39.891Z,8.65
2019-03-24T08:16:07.647Z,9.60
2019-03-24T08:18:35.274Z,10.19
2019-03-24T08:21:02.996Z,10.78
2019-03-24T08:23:30.622Z,11.24
2019-03-24T08:25:58.242Z,11.59
2019-03-24T08:28:25.909Z,11.35
2019-03-24T08:30:53.515Z,11.21
2019-03-24T08:33:30.300Z,11.59
2019-03-24T08:36:00.848Z,11.12
2019-03-24T08:38:28.481Z,11.00
2019-03-24T08:40:56.082Z,10.85
2019-03-24T08:43:33.314Z,10.46
2019-03-24T08:46:00.923Z,10.32
2019-03-24T08:48:28.546Z,10.07
2019-03-24T08:50:56.311Z,9.95
2019-03-24T08:53:23.963Z,9.73
2019-03-24T08:55:51.619Z,9.49
2019-03-24T08:58:19.214Z,9.25
2019-03-24T09:00:46.838Z,9.24
2019-03-24T09:03:14.553Z,9.34
2019-03-24T09:05:42.176Z,9.51
2019-03-24T09:08:09.791Z,9.43
2019-03-24T09:10:37.427Z,9.54
2019-03-24T09:13:07.972Z,9.58
2019-03-24T09:15:35.559Z,9.59
2019-03-24T09:18:03.424Z,9.45
2019-03-24T09:20:40.994Z,9.44
2019-03-24T09:23:00.549Z,9.59
2019-03-24T09:25:28.282Z,9.57
2019-03-24T09:27:56.006Z,9.54
2019-03-24T09:30:31.121Z,9.59
2019-03-24T09:32:58.751Z,9.62
2019-03-24T09:35:26.358Z,9.70
2019-03-24T09:37:54.092Z,9.73
2019-03-24T09:40:27.031Z,9.68
2019-03-24T09:42:54.917Z,9.56
2019-03-24T09:45:31.841Z,9.43
2019-03-24T09:48:00.564Z,9.40
2019-03-24T09:50:28.257Z,9.51
2019-03-24T09:52:56.053Z,9.54
2019-03-24T09:55:23.707Z,9.48
2019-03-24T09:57:51.366Z,9.38
2019-03-24T10:00:19.052Z,9.28
2019-03-24T10:02:46.683Z,9.32
2019-03-24T10:05:14.296Z,9.46
2019-03-24T10:07:41.955Z,9.57
2019-03-24T10:10:10.842Z,9.64
2019-03-24T10:12:38.421Z,9.80
2019-03-24T10:15:06.786Z,10.00
2019-03-24T10:17:34.501Z,9.90
2019-03-24T10:20:02.162Z,9.84
2019-03-24T10:22:29.828Z,9.83
2019-03-24T10:24:57.525Z,9.72
2019-03-24T10:27:25.104Z,9.76
2019-03-24T10:29:52.744Z,9.80
2019-03-24T10:32:20.392Z,9.85
2019-03-24T10:34:48.013Z,9.87
2019-03-24T10:37:15.660Z,9.83
2019-03-24T10:39:43.297Z,9.74
2019-03-24T10:42:10.935Z,9.68
2019-03-24T10:44:40.374Z,9.80
2019-03-24T10:47:08.096Z,9.89
2019-03-24T10:49:35.750Z,10.06
2019-03-24T10:52:03.438Z,10.09
2019-03-24T10:54:31.112Z,10.02
2019-03-24T10:56:58.832Z,10.06
2019-03-24T10:59:26.429Z,9.96
2019-03-24T11:01:54.029Z,9.97
2019-03-24T11:04:21.642Z,10.09
2019-03-24T11:06:49.410Z,10.15
2019-03-24T11:09:17.059Z,10.21
2019-03-24T11:11:44.683Z,10.30
2019-03-24T11:14:12.311Z,10.46
2019-03-24T11:16:39.909Z,10.48
2019-03-24T11:19:07.549Z,10.49
2019-03-24T11:21:35.235Z,10.44
2019-03-24T11:24:02.830Z,10.39
2019-03-24T11:26:30.460Z,10.26
2019-03-24T11:28:58.084Z,10.19
2019-03-24T11:31:25.709Z,10.25
2019-03-24T11:33:53.374Z,10.36
2019-03-24T11:36:21.029Z,10.47
2019-03-24T11:38:48.690Z,10.52
2019-03-24T11:41:19.018Z,10.56
2019-03-24T11:43:46.615Z,10.57
2019-03-24T11:46:14.268Z,10.56
2019-03-24T11:48:41.876Z,10.62
2019-03-24T11:51:09.529Z,10.77
2019-03-24T11:53:37.216Z,10.97
2019-03-24T11:56:04.900Z,11.13
2019-03-24T11:58:32.555Z,11.16
2019-03-24T12:01:00.164Z,11.14
2019-03-24T12:03:27.782Z,11.22
2019-03-24T12:05:55.411Z,11.25
2019-03-24T12:08:23.055Z,11.25
2019-03-24T12:10:50.753Z,11.28
2019-03-24T12:13:18.382Z,11.15
2019-03-24T12:15:46.011Z,11.07
2019-03-24T12:18:13.627Z,11.01
2019-03-24T12:20:41.276Z,10.91
2019-03-24T12:23:08.885Z,10.91
2019-03-24T12:25:36.544Z,10.95
2019-03-24T12:28:04.126Z,10.98
2019-03-24T12:30:31.758Z,11.00
2019-03-24T12:32:59.381Z,10.91
2019-03-24T12:35:27.043Z,10.79
2019-03-24T12:37:54.679Z,10.72
2019-03-24T12:40:22.299Z,10.63
2019-03-24T12:42:49.990Z,10.52
2019-03-24T12:45:17.772Z,10.47
2019-03-24T12:47:45.393Z,10.47
2019-03-24T12:50:13.104Z,10.46
2019-03-24T12:52:40.738Z,10.35
2019-03-24T12:55:08.677Z,10.25
2019-03-24T12:57:36.316Z,10.24
2019-03-24T13:00:05.923Z,10.21
2019-03-24T13:02:33.637Z,10.19
2019-03-24T13:05:01.346Z,10.20
2019-03-24T13:07:28.956Z,10.13
2019-03-24T13:09:56.611Z,10.08
2019-03-24T13:12:24.247Z,10.17
2019-03-24T13:14:51.891Z,10.18
2019-03-24T13:17:19.525Z,10.16
2019-03-24T13:19:47.128Z,10.16
2019-03-24T13:22:14.740Z,10.13
2019-03-24T13:24:42.372Z,10.14
2019-03-24T13:27:09.990Z,10.24
2019-03-24T13:29:37.653Z,10.25
2019-03-24T13:32:05.389Z,10.20
2019-03-24T13:34:33.091Z,10.17
2019-03-24T13:37:00.694Z,10.16
2019-03-24T13:39:28.298Z,10.13
2019-03-24T13:41:55.967Z,10.07
2019-03-24T13:44:23.581Z,9.99
2019-03-24T13:46:51.197Z,9.97
2019-03-24T13:49:18.849Z,9.94
2019-03-24T13:51:46.519Z,9.91
2019-03-24T13:54:14.144Z,9.88
2019-03-24T13:56:41.764Z,9.87
2019-03-24T13:59:09.422Z,9.88
2019-03-24T14:01:37.054Z,9.89
2019-03-24T14:04:04.705Z,9.85
2019-03-24T14:06:32.274Z,9.85
2019-03-24T14:08:59.910Z,9.87
2019-03-24T14:11:27.511Z,9.84
2019-03-24T14:13:55.145Z,9.81
2019-03-24T14:16:22.747Z,9.80
2019-03-24T14:18:50.364Z,9.82
2019-03-24T14:21:18.011Z,9.81
2019-03-24T14:23:45.612Z,9.80
2019-03-24T14:26:13.213Z,9.75
2019-03-24T14:28:40.824Z,9.65
2019-03-24T14:31:08.438Z,9.61
2019-03-24T14:33:36.046Z,9.62
2019-03-24T14:36:03.755Z,9.62
2019-03-24T14:38:31.355Z,9.64
2019-03-24T14:40:58.957Z,9.69
2019-03-24T14:43:26.560Z,9.77
2019-03-24T14:45:54.178Z,9.84
2019-03-24T14:48:21.780Z,9.90
2019-03-24T14:50:54.321Z,9.98
2019-03-24T14:53:18.958Z,10.02
2019-03-24T14:55:46.608Z,10.04
2019-03-24T14:58:14.206Z,9.98
2019-03-24T15:00:42.330Z,9.93
2019-03-24T15:03:10.224Z,9.88
2019-03-24T15:05:37.826Z,9.80
2019-03-24T15:08:06.669Z,9.77
2019-03-24T15:10:34.290Z,9.72
2019-03-24T15:13:02.002Z,9.69
2019-03-24T15:15:29.606Z,9.61
2019-03-24T15:17:57.236Z,9.58
2019-03-24T15:20:24.876Z,9.51
2019-03-24T15:22:52.496Z,9.48
2019-03-24T15:25:20.124Z,9.42
2019-03-24T15:27:47.753Z,9.41
2019-03-24T15:30:15.627Z,9.37
2019-03-24T15:32:43.293Z,9.32
2019-03-24T15:35:11.004Z,9.27
2019-03-24T15:37:38.638Z,9.22
2019-03-24T15:40:07.698Z,9.23
2019-03-24T15:42:35.308Z,9.18
2019-03-24T15:45:02.999Z,9.19
2019-03-24T15:47:30.579Z,9.16
2019-03-24T15:49:58.259Z,9.14
2019-03-24T15:52:25.890Z,9.12
2019-03-24T15:54:53.499Z,9.11
2019-03-24T15:57:21.115Z,9.05
2019-03-24T15:59:50.422Z,8.97
2019-03-24T16:02:18.281Z,8.92
2019-03-24T16:04:45.895Z,8.85
2019-03-24T16:07:13.540Z,8.81
2019-03-24T16:09:41.393Z,8.76
2019-03-24T16:12:09.009Z,8.75
2019-03-24T16:14:36.654Z,8.64
2019-03-24T16:17:04.267Z,8.63
2019-03-24T16:19:31.962Z,8.59
2019-03-24T16:21:59.610Z,8.55
2019-03-24T16:24:27.235Z,8.49
2019-03-24T16:26:54.865Z,8.46
2019-03-24T16:29:22.479Z,8.39
2019-03-24T16:31:50.130Z,8.33
2019-03-24T16:34:17.748Z,8.27
2019-03-24T16:36:45.355Z,8.21
2019-03-24T16:39:12.985Z,8.13
2019-03-24T16:41:40.593Z,8.07
2019-03-24T16:44:08.240Z,8.00
2019-03-24T16:46:35.871Z,7.96
2019-03-24T16:49:03.581Z,7.92
2019-03-24T16:51:38.395Z,7.85
2019-03-24T16:54:00.710Z,7.82
2019-03-24T16:56:29.097Z,7.74
2019-03-24T16:58:56.710Z,7.72
2019-03-24T17:01:24.334Z,7.65
2019-03-24T17:03:51.968Z,7.61
2019-03-24T17:06:19.563Z,7.54
2019-03-24T17:08:47.192Z,7.53
2019-03-24T17:11:14.800Z,7.51
2019-03-24T17:13:42.440Z,7.47
2019-03-24T17:16:10.051Z,7.40
2019-03-24T17:18:37.669Z,7.36
2019-03-24T17:21:05.295Z,7.31
2019-03-24T17:23:32.940Z,7.30
2019-03-24T17:26:00.567Z,7.28
2019-03-24T17:28:28.193Z,7.24
2019-03-24T17:30:55.808Z,7.22
2019-03-24T17:33:23.422Z,7.15
2019-03-24T17:35:51.051Z,7.11
2019-03-24T17:38:18.719Z,7.07
2019-03-24T17:40:46.447Z,7.04
2019-03-24T17:43:14.054Z,6.98
2019-03-24T17:45:41.710Z,6.95
2019-03-24T17:48:09.396Z,6.88
2019-03-24T17:50:37.050Z,6.86
2019-03-24T17:53:06.657Z,6.82
2019-03-24T17:55:34.217Z,6.79
2019-03-24T17:58:01.879Z,6.77
2019-03-24T18:00:37.595Z,6.74
2019-03-24T18:03:05.334Z,6.69
2019-03-24T18:05:32.954Z,6.70
2019-03-24T18:08:00.614Z,6.67
2019-03-24T18:10:28.247Z,6.67
2019-03-24T18:12:56.105Z,6.64
2019-03-24T18:15:23.729Z,6.62
2019-03-24T18:17:51.377Z,6.57
2019-03-24T18:20:29.228Z,6.53
2019-03-24T18:22:56.972Z,6.54
2019-03-24T18:25:24.611Z,6.50
2019-03-24T18:27:52.249Z,6.47
2019-03-24T18:30:20.175Z,6.44
2019-03-24T18:32:47.839Z,6.41
2019-03-24T18:35:15.687Z,6.40
2019-03-24T18:37:43.356Z,6.36
2019-03-24T18:40:11.445Z,6.33
2019-03-24T18:42:39.108Z,6.30
2019-03-24T18:45:08.649Z,6.28
2019-03-24T18:47:39.262Z,6.28
2019-03-24T18:50:07.680Z,6.25
2019-03-24T18:52:35.333Z,6.23
2019-03-24T18:55:06.603Z,6.21
2019-03-24T18:57:35.702Z,6.17
2019-03-24T19:00:05.017Z,6.14
2019-03-24T19:02:32.891Z,6.14
2019-03-24T19:05:00.733Z,6.10
2019-03-24T19:07:28.352Z,6.07
2019-03-24T19:09:56.063Z,6.05
2019-03-24T19:12:24.806Z,6.04
2019-03-24T19:14:54.242Z,6.02
2019-03-24T19:17:21.861Z,5.99
2019-03-24T19:19:49.520Z,5.96
2019-03-24T19:22:18.482Z,5.94
2019-03-24T19:24:46.187Z,5.90
2019-03-24T19:27:13.848Z,5.88
2019-03-24T19:29:41.446Z,5.86
2019-03-24T19:32:09.077Z,5.84
2019-03-24T19:34:37.230Z,5.84
2019-03-24T19:37:04.826Z,5.82
2019-03-24T19:39:32.462Z,5.82
2019-03-24T19:42:00.077Z,5.81
2019-03-24T19:44:27.695Z,5.81
2019-03-24T19:46:55.336Z,5.78
2019-03-24T19:49:22.994Z,5.79
2019-03-24T19:51:50.640Z,5.74
2019-03-24T19:54:18.279Z,5.72
2019-03-24T19:56:45.884Z,5.69
2019-03-24T19:59:13.530Z,5.67
2019-03-24T20:01:41.188Z,5.65
2019-03-24T20:04:09.291Z,5.62
2019-03-24T20:06:36.948Z,5.60
2019-03-24T20:09:07.523Z,5.63
2019-03-24T20:11:35.143Z,5.62
2019-03-24T20:14:02.778Z,5.60
2019-03-24T20:16:30.371Z,5.57
2019-03-24T20:18:57.973Z,5.53
2019-03-24T20:21:25.589Z,5.49
2019-03-24T20:23:53.193Z,5.44
2019-03-24T20:26:20.884Z,5.41
2019-03-24T20:28:48.458Z,5.40
2019-03-24T20:31:16.142Z,5.39
2019-03-24T20:33:43.762Z,5.41
2019-03-24T20:36:11.412Z,5.37
2019-03-24T20:38:38.979Z,5.35
2019-03-24T20:41:06.586Z,5.34
2019-03-24T20:43:34.247Z,5.33
2019-03-24T20:46:01.834Z,5.32
2019-03-24T20:48:29.441Z,5.30
2019-03-24T20:50:57.045Z,5.27
2019-03-24T20:53:24.651Z,5.25
2019-03-24T20:55:52.266Z,5.23
2019-03-24T20:58:19.868Z,5.18
2019-03-24T21:00:47.480Z,5.15
2019-03-24T21:03:15.100Z,5.11
2019-03-24T21:05:42.714Z,5.07
2019-03-24T21:08:10.359Z,5.06
2019-03-24T21:10:37.968Z,5.04
2019-03-24T21:13:05.572Z,5.04
2019-03-24T21:15:33.182Z,5.05
2019-03-24T21:18:00.792Z,5.05
2019-03-24T21:20:28.396Z,5.04
2019-03-24T21:22:56.499Z,5.01
2019-03-24T21:25:24.108Z,5.02
2019-03-24T21:27:51.719Z,5.02
2019-03-24T21:30:32.029Z,5.02
2019-03-24T21:32:59.735Z,5.01
2019-03-24T21:35:27.349Z,5.03
2019-03-24T21:37:56.735Z,5.00
2019-03-24T21:40:24.341Z,4.96
2019-03-24T21:42:51.954Z,4.92
2019-03-24T21:45:19.554Z,4.87
2019-03-24T21:47:47.154Z,4.81
2019-03-24T21:50:14.864Z,4.75
2019-03-24T21:52:42.475Z,4.71
2019-03-24T21:55:10.182Z,4.65
2019-03-24T21:57:37.794Z,4.63
2019-03-24T22:00:07.528Z,4.63
2019-03-24T22:02:35.138Z,4.60
2019-03-24T22:05:02.959Z,4.56
2019-03-24T22:07:30.556Z,4.55
2019-03-24T22:09:58.179Z,4.52
2019-03-24T22:12:25.773Z,4.49
2019-03-24T22:14:55.192Z,4.48
2019-03-24T22:17:22.830Z,4.46
2019-03-24T22:19:50.435Z,4.44
2019-03-24T22:22:18.080Z,4.40
2019-03-24T22:24:48.036Z,4.39
2019-03-24T22:27:15.656Z,4.38
2019-03-24T22:29:45.062Z,4.33
2019-03-24T22:32:12.687Z,4.31
2019-03-24T22:34:40.314Z,4.26
2019-03-24T22:37:15.752Z,4.23
2019-03-24T22:39:37.455Z,4.21
2019-03-24T22:42:05.063Z,4.20
2019-03-24T22:44:32.667Z,4.23
2019-03-24T22:47:00.277Z,4.23
2019-03-24T22:49:27.874Z,4.23
2019-03-24T22:52:06.601Z,4.21
2019-03-24T22:54:25.003Z,4.20
2019-03-24T22:56:52.690Z,4.18
2019-03-24T22:59:20.346Z,4.15
2019-03-24T23:01:47.932Z,4.08
2019-03-24T23:04:16.748Z,4.05
2019-03-24T23:06:44.350Z,4.03
2019-03-24T23:09:12.051Z,4.01
2019-03-24T23:11:39.659Z,3.99
2019-03-24T23:14:07.269Z,3.98
2019-03-24T23:16:34.866Z,3.98
2019-03-24T23:19:02.472Z,3.96
2019-03-24T23:21:30.111Z,3.93
2019-03-24T23:23:57.707Z,3.91
2019-03-24T23:26:25.308Z,3.89
2019-03-24T23:28:52.927Z,3.87
2019-03-24T23:31:20.537Z,3.85
2019-03-24T23:33:48.139Z,3.80
2019-03-24T23:36:15.747Z,3.76
2019-03-24T23:38:43.351Z,3.76
2019-03-24T23:41:10.946Z,3.76
2019-03-24T23:43:38.537Z,3.75
2019-03-24T23:46:06.134Z,3.74
2019-03-24T23:48:33.949Z,3.74
2019-03-24T23:51:01.665Z,3.74
2019-03-24T23:53:29.271Z,3.73
2019-03-24T23:55:56.886Z,3.71
2019-03-24T23:58:24.504Z,3.69
